Time;durP1;ratioP1;P1;durP2;ratioP2;P2;SDS_P1;SDS_P2;PMS_P1;PMS_P2;Temp;Humidity;BMP_temperature;BMP_pressure;BME280_temperature;BME280_humidity;BME280_pressure;Samples;Min_cycle;Max_cycle;Signal;HPM_P1;HPM_P2
2022/11/12 00:02:05;;;;;;;14.67;5.60;;;4.40;99.90;;;;;;5074304;28;20486;-80
2022/11/12 00:04:32;;;;;;;23.00;7.47;;;4.40;99.90;;;;;;5075717;28;20512;-81
2022/11/12 00:06:59;;;;;;;44.70;8.00;;;4.30;99.90;;;;;;5076299;28;20973;-79
2022/11/12 00:09:26;;;;;;;50.60;9.77;;;4.20;99.90;;;;;;5069303;28;20812;-80
2022/11/12 00:11:54;;;;;;;25.77;7.40;;;4.20;99.90;;;;;;5082499;28;20588;-79
2022/11/12 00:14:21;;;;;;;58.90;7.40;;;4.10;99.90;;;;;;5081821;28;20459;-79
2022/11/12 00:16:48;;;;;;;7.20;3.10;;;4.20;99.90;;;;;;5069485;28;20463;-79
2022/11/12 00:19:15;;;;;;;10.27;3.23;;;4.20;99.90;;;;;;5068652;28;20455;-80
2022/11/12 00:21:42;;;;;;;23.23;7.50;;;4.10;99.90;;;;;;5082552;28;21147;-79
2022/11/12 00:24:09;;;;;;;77.80;12.03;;;4.10;99.90;;;;;;5072591;28;20495;-81
2022/11/12 00:26:36;;;;;;;13.10;3.80;;;4.20;99.90;;;;;;5068406;28;20454;-79
2022/11/12 00:29:04;;;;;;;92.27;14.73;;;4.20;99.90;;;;;;5068828;28;20485;-78
2022/11/12 00:31:33;;;;;;;37.60;8.07;;;4.30;99.90;;;;;;5062866;28;20524;-78
2022/11/12 00:34:00;;;;;;;39.30;9.50;;;4.20;99.90;;;;;;5074784;28;21110;-78
2022/11/12 00:36:27;;;;;;;65.60;8.37;;;4.20;99.90;;;;;;5077949;28;20599;-79
2022/11/12 00:38:54;;;;;;;55.13;9.40;;;4.30;99.90;;;;;;5083816;28;20916;-79
2022/11/12 00:41:21;;;;;;;98.83;16.00;;;4.40;99.90;;;;;;5087140;28;20538;-79
2022/11/12 00:43:48;;;;;;;77.43;12.80;;;4.40;99.90;;;;;;5088847;28;20458;-79
2022/11/12 00:46:16;;;;;;;61.27;9.50;;;4.40;99.90;;;;;;5081189;28;20473;-79
2022/11/12 00:48:43;;;;;;;103.00;18.87;;;4.40;99.90;;;;;;5082302;28;20458;-78
2022/11/12 00:51:10;;;;;;;47.23;9.73;;;4.40;99.90;;;;;;5089525;28;20581;-79
2022/11/12 00:53:37;;;;;;;70.13;16.70;;;4.30;99.90;;;;;;5080603;28;20459;-78
2022/11/12 00:56:05;;;;;;;51.67;9.57;;;4.30;99.90;;;;;;5086921;28;20531;-79
2022/11/12 00:58:34;;;;;;;13.93;6.37;;;4.30;99.90;;;;;;5079844;28;20552;-79
2022/11/12 01:01:07;;;;;;;61.60;12.23;;;4.30;99.90;;;;;;5089413;28;20454;-78
2022/11/12 01:03:35;;;;;;;122.27;22.17;;;4.30;99.90;;;;;;5082872;28;20520;-78
2022/11/12 01:06:03;;;;;;;78.67;13.23;;;4.30;99.90;;;;;;5078729;28;20468;-78
2022/11/12 01:08:30;;;;;;;113.50;18.37;;;4.20;99.90;;;;;;5086586;28;20517;-78
2022/11/12 01:11:04;;;;;;;24.00;6.17;;;4.20;99.90;;;;;;5079625;28;20482;-78
2022/11/12 01:13:31;;;;;;;45.63;12.47;;;4.20;99.90;;;;;;5091283;28;20515;-78
2022/11/12 01:15:58;;;;;;;127.60;19.33;;;4.10;99.90;;;;;;5084115;28;20467;-79
2022/11/12 01:18:25;;;;;;;49.90;9.97;;;4.10;99.90;;;;;;5084451;28;20478;-80
2022/11/12 01:20:54;;;;;;;51.83;8.83;;;4.20;99.90;;;;;;5088700;28;20925;-78
2022/11/12 01:23:21;;;;;;;44.27;7.07;;;4.10;99.90;;;;;;5085098;27;20467;-78
2022/11/12 01:25:48;;;;;;;45.23;15.87;;;4.10;99.90;;;;;;5086057;28;20490;-78
2022/11/12 01:28:15;;;;;;;49.43;8.10;;;4.00;99.90;;;;;;5086647;28;20583;-78
2022/11/12 01:30:42;;;;;;;56.43;11.17;;;4.00;99.90;;;;;;5088401;28;20574;-78
2022/11/12 01:33:08;;;;;;;32.73;9.10;;;4.00;99.90;;;;;;5074469;28;20512;-78
2022/11/12 01:35:35;;;;;;;18.13;4.93;;;4.00;99.90;;;;;;5084812;28;20467;-78
2022/11/12 01:38:04;;;;;;;27.87;7.10;;;3.90;99.90;;;;;;5080825;28;20532;-78
2022/11/12 01:40:32;;;;;;;78.23;10.00;;;3.90;99.90;;;;;;5079685;28;20524;-78
2022/11/12 01:42:59;;;;;;;32.57;7.33;;;4.00;99.90;;;;;;5091668;28;20454;-78
2022/11/12 01:45:26;;;;;;;19.63;5.70;;;4.00;99.90;;;;;;5092903;28;20527;-79
2022/11/12 01:47:53;;;;;;;18.23;7.70;;;4.00;99.90;;;;;;5081218;28;20852;-78
2022/11/12 01:50:24;;;;;;;45.90;10.13;;;4.00;99.90;;;;;;5071547;28;20603;-78
2022/11/12 01:52:54;;;;;;;14.83;4.80;;;3.90;99.90;;;;;;5090365;28;20462;-78
2022/11/12 01:55:27;;;;;;;26.50;4.90;;;4.00;99.90;;;;;;5087387;28;20516;-78
2022/11/12 01:58:03;;;;;;;6.50;3.33;;;3.80;99.90;;;;;;5070498;28;20517;-78
2022/11/12 02:00:30;;;;;;;16.93;4.20;;;3.80;99.90;;;;;;5077607;28;20450;-78
2022/11/12 02:03:00;;;;;;;10.83;4.33;;;3.90;99.90;;;;;;5069190;28;20458;-78
2022/11/12 02:05:29;;;;;;;6.73;3.00;;;3.90;99.90;;;;;;5075643;28;20545;-79
2022/11/12 02:07:59;;;;;;;19.97;4.63;;;3.80;99.90;;;;;;5080213;28;20471;-78
2022/11/12 02:10:28;;;;;;;43.60;7.40;;;3.70;99.90;;;;;;5078283;28;20541;-78
2022/11/12 02:15:40;;;;;;;174.83;27.00;;;3.80;99.90;;;;;;5070883;28;20446;-78
2022/11/12 02:18:08;;;;;;;93.37;17.93;;;3.90;99.90;;;;;;5079651;28;20471;-78
2022/11/12 02:20:36;;;;;;;145.13;22.73;;;4.00;99.90;;;;;;5071671;28;20512;-81
2022/11/12 02:23:05;;;;;;;466.73;70.47;;;3.90;99.90;;;;;;5087950;28;20459;-79
2022/11/12 02:25:33;;;;;;;258.03;37.83;;;3.80;99.90;;;;;;5074905;28;20458;-78
2022/11/12 02:28:01;;;;;;;166.53;21.80;;;3.80;99.90;;;;;;5081228;28;20485;-78
2022/11/12 02:30:33;;;;;;;108.30;19.43;;;3.80;99.90;;;;;;5072107;28;20477;-78
2022/11/12 02:33:00;;;;;;;80.60;17.20;;;3.90;99.90;;;;;;5079171;28;20462;-78
2022/11/12 02:35:27;;;;;;;70.17;10.80;;;3.90;99.90;;;;;;5080894;28;20523;-79
2022/11/12 02:37:54;;;;;;;77.30;14.57;;;3.80;99.90;;;;;;5074640;28;20479;-78
2022/11/12 02:40:22;;;;;;;29.60;5.70;;;3.80;99.90;;;;;;5084143;28;20808;-79
2022/11/12 02:42:49;;;;;;;15.80;3.63;;;3.80;99.90;;;;;;5085933;28;20512;-78
2022/11/12 02:45:18;;;;;;;26.33;3.87;;;3.70;99.90;;;;;;5085035;28;20476;-79
2022/11/12 02:47:45;;;;;;;47.63;8.57;;;3.60;99.90;;;;;;5087771;28;20487;-78
2022/11/12 02:50:12;;;;;;;142.00;14.07;;;3.50;99.90;;;;;;5084805;28;20486;-78
2022/11/12 02:52:39;;;;;;;62.53;9.53;;;3.50;99.90;;;;;;5083550;28;20463;-78
2022/11/12 02:55:08;;;;;;;35.30;7.73;;;3.50;99.90;;;;;;5075085;28;20459;-78
2022/11/12 02:57:36;;;;;;;69.47;12.57;;;3.40;99.90;;;;;;5072946;28;20487;-78
2022/11/12 03:00:04;;;;;;;83.57;12.50;;;3.50;99.90;;;;;;5091705;28;20511;-78
2022/11/12 03:02:31;;;;;;;54.73;9.80;;;3.50;99.90;;;;;;5086924;28;20999;-78
2022/11/12 03:04:58;;;;;;;53.80;14.03;;;3.50;99.90;;;;;;5085752;28;20540;-78
2022/11/12 03:07:25;;;;;;;42.77;9.23;;;3.40;99.90;;;;;;5076543;28;20504;-78
2022/11/12 03:09:52;;;;;;;21.67;6.80;;;3.30;99.90;;;;;;5101453;28;20526;-78
2022/11/12 03:12:19;;;;;;;50.50;7.40;;;3.20;99.90;;;;;;5091737;28;20903;-78
2022/11/12 03:14:48;;;;;;;76.40;11.60;;;3.20;99.90;;;;;;5083949;28;20464;-78
2022/11/12 03:17:14;;;;;;;20.20;7.80;;;3.20;99.90;;;;;;5081457;28;20504;-78
2022/11/12 03:19:41;;;;;;;49.67;9.60;;;3.20;99.90;;;;;;5075519;28;20459;-79
2022/11/12 03:22:08;;;;;;;22.17;5.53;;;3.20;99.90;;;;;;5088975;28;20461;-79
2022/11/12 03:24:35;;;;;;;24.50;6.10;;;3.10;99.90;;;;;;5089438;28;20457;-80
2022/11/12 03:27:02;;;;;;;77.40;13.40;;;3.10;99.90;;;;;;5079858;28;20466;-79
2022/11/12 03:29:29;;;;;;;13.43;4.00;;;3.10;99.90;;;;;;5090395;28;20471;-79
2022/11/12 03:31:57;;;;;;;10.47;2.63;;;3.20;99.90;;;;;;5078698;28;20475;-79
2022/11/12 03:34:24;;;;;;;21.03;3.43;;;3.20;99.90;;;;;;5079925;28;20475;-79
2022/11/12 03:36:51;;;;;;;51.47;5.93;;;3.20;99.90;;;;;;5079370;28;20651;-79
2022/11/12 03:39:18;;;;;;;13.73;3.07;;;3.10;99.90;;;;;;5091533;28;20544;-78
2022/11/12 03:41:45;;;;;;;23.13;4.70;;;3.10;99.90;;;;;;5076056;28;20588;-78
2022/11/12 03:44:12;;;;;;;57.23;7.07;;;3.10;99.90;;;;;;5086977;28;20612;-78
2022/11/12 03:46:39;;;;;;;2.17;1.97;;;3.10;99.90;;;;;;5094132;28;20830;-78
2022/11/12 03:49:07;;;;;;;10.67;3.77;;;3.10;99.90;;;;;;5097804;28;20474;-79
2022/11/12 03:51:34;;;;;;;19.20;2.30;;;3.00;99.90;;;;;;5077378;28;20953;-78
2022/11/12 03:54:01;;;;;;;38.23;5.70;;;2.90;99.90;;;;;;5077093;28;20499;-78
2022/11/12 03:56:28;;;;;;;28.17;4.17;;;2.80;99.90;;;;;;5084447;28;20533;-78
2022/11/12 03:58:55;;;;;;;54.53;9.23;;;2.90;99.90;;;;;;5073674;28;20513;-78
2022/11/12 04:01:22;;;;;;;40.07;5.00;;;2.90;99.90;;;;;;5073113;28;20455;-78
2022/11/12 04:03:49;;;;;;;10.87;3.33;;;2.90;99.90;;;;;;5076388;28;20496;-78
2022/11/12 04:09:02;;;;;;;13.20;4.00;;;2.80;99.90;;;;;;5076624;28;20453;-79
2022/11/12 04:11:28;;;;;;;11.33;3.20;;;2.70;99.90;;;;;;5077464;28;20483;-78
2022/11/12 04:13:54;;;;;;;105.90;12.33;;;2.90;99.90;;;;;;5071812;28;20499;-79
2022/11/12 04:22:00;;;;;;;78.90;12.70;;;2.90;99.90;;;;;;5073709;28;20790;-78
2022/11/12 04:27:15;;;;;;;41.50;9.93;;;2.70;99.90;;;;;;5078610;28;20533;-78
2022/11/12 04:32:27;;;;;;;12.27;7.53;;;2.70;99.90;;;;;;5076741;28;20451;-78
2022/11/12 04:34:54;;;;;;;8.20;4.23;;;2.70;99.90;;;;;;5091209;28;20858;-78
2022/11/12 04:37:25;;;;;;;30.93;7.77;;;2.60;99.90;;;;;;5073170;28;20993;-79
2022/11/12 04:39:52;;;;;;;13.23;1.90;;;2.60;99.90;;;;;;5082945;28;20471;-78
2022/11/12 04:45:07;;;;;;;9.40;3.83;;;2.50;99.90;;;;;;5078977;28;20453;-78
2022/11/12 04:47:36;;;;;;;6.80;2.53;;;2.40;99.90;;;;;;5084860;28;20467;-78
2022/11/12 04:50:06;;;;;;;3.20;2.20;;;2.30;99.90;;;;;;5093166;28;20551;-79
2022/11/12 04:52:34;;;;;;;15.20;3.73;;;2.20;99.90;;;;;;5077109;28;20549;-78
2022/11/12 04:55:01;;;;;;;3.83;2.30;;;2.20;99.90;;;;;;5082438;28;20547;-78
2022/11/12 04:57:28;;;;;;;27.03;3.27;;;2.20;99.90;;;;;;5074048;28;21069;-78
2022/11/12 04:59:55;;;;;;;6.30;2.03;;;2.10;99.90;;;;;;5084873;28;20503;-78
2022/11/12 05:02:23;;;;;;;11.97;2.37;;;2.10;99.90;;;;;;5085230;28;20457;-78
2022/11/12 05:04:50;;;;;;;21.27;5.73;;;2.00;99.90;;;;;;5088155;28;20474;-78
2022/11/12 05:07:17;;;;;;;20.63;3.53;;;1.90;99.90;;;;;;5072924;28;20861;-78
2022/11/12 05:09:46;;;;;;;14.20;5.23;;;1.80;99.90;;;;;;5082660;28;20458;-78
2022/11/12 05:12:12;;;;;;;28.37;4.67;;;1.90;99.90;;;;;;5081612;28;20490;-78
2022/11/12 05:14:39;;;;;;;82.90;14.37;;;1.90;99.90;;;;;;5090608;28;20454;-79
2022/11/12 05:17:06;;;;;;;10.10;3.63;;;1.90;99.90;;;;;;5089952;28;20968;-78
2022/11/12 05:19:34;;;;;;;41.57;9.73;;;1.80;99.90;;;;;;5079829;28;20462;-79
2022/11/12 05:22:06;;;;;;;9.17;3.33;;;1.70;99.90;;;;;;5082405;28;20459;-79
2022/11/12 05:24:38;;;;;;;29.33;6.67;;;1.70;99.90;;;;;;5085157;28;22551;-79
2022/11/12 05:27:09;;;;;;;42.20;6.07;;;1.70;99.90;;;;;;5080254;28;20474;-78
2022/11/12 05:29:36;;;;;;;22.50;4.93;;;1.60;99.90;;;;;;5075131;28;20487;-79
2022/11/12 05:32:04;;;;;;;11.63;1.43;;;1.50;99.90;;;;;;5068430;28;20515;-79
2022/11/12 05:34:31;;;;;;;8.27;3.80;;;1.50;99.90;;;;;;5076599;28;20462;-78
2022/11/12 05:36:58;;;;;;;44.10;13.90;;;1.50;99.90;;;;;;5076366;28;20486;-78
2022/11/12 05:39:26;;;;;;;46.80;6.47;;;1.50;99.90;;;;;;5073248;28;20527;-78
2022/11/12 05:41:53;;;;;;;11.60;4.50;;;1.50;99.90;;;;;;5081604;28;20806;-78
2022/11/12 05:44:21;;;;;;;20.67;6.60;;;1.40;99.90;;;;;;5074797;28;20560;-78
2022/11/12 05:46:49;;;;;;;65.73;11.00;;;1.40;99.90;;;;;;5087144;28;20458;-78
2022/11/12 05:49:16;;;;;;;42.73;6.13;;;1.40;99.90;;;;;;5077410;28;20550;-79
2022/11/12 05:51:43;;;;;;;62.20;13.90;;;1.30;99.90;;;;;;5085135;28;20502;-78
2022/11/12 05:54:10;;;;;;;81.70;14.73;;;1.30;99.90;;;;;;5080806;28;20923;-78
2022/11/12 05:56:37;;;;;;;65.40;14.87;;;1.40;99.90;;;;;;5070385;28;21007;-78
2022/11/12 05:59:06;;;;;;;69.20;19.50;;;1.50;99.90;;;;;;5079642;28;20462;-79
2022/11/12 06:01:37;;;;;;;32.30;10.27;;;1.50;99.90;;;;;;5080329;28;20458;-78
2022/11/12 06:04:04;;;;;;;6.73;2.50;;;1.40;99.90;;;;;;5080709;28;20562;-78
2022/11/12 06:06:31;;;;;;;15.53;5.23;;;1.30;99.90;;;;;;5074082;28;20467;-78
2022/11/12 06:08:58;;;;;;;29.27;4.50;;;1.20;99.90;;;;;;5083966;28;20462;-78
2022/11/12 06:11:25;;;;;;;4.47;1.63;;;1.20;99.90;;;;;;5074589;28;20490;-78
2022/11/12 06:13:52;;;;;;;3.57;1.97;;;1.20;99.90;;;;;;5092653;28;21035;-78
2022/11/12 06:16:18;;;;;;;7.13;1.47;;;1.20;99.90;;;;;;5079703;28;21393;-77
2022/11/12 06:18:47;;;;;;;3.27;1.87;;;1.10;99.90;;;;;;5079495;28;20482;-76
2022/11/12 06:21:21;;;;;;;2.30;2.10;;;1.10;99.90;;;;;;5076466;28;20481;-78
2022/11/12 06:23:50;;;;;;;5.67;2.37;;;1.00;99.90;;;;;;5073230;28;20462;-77
2022/11/12 06:26:18;;;;;;;1.33;1.23;;;1.10;99.90;;;;;;5068601;28;20495;-79
2022/11/12 06:28:46;;;;;;;0.90;0.90;;;1.10;99.90;;;;;;5081892;28;20487;-79
2022/11/12 06:31:13;;;;;;;5.07;1.40;;;1.10;99.90;;;;;;5085477;28;20486;-79
2022/11/12 06:33:40;;;;;;;3.33;1.33;;;1.20;99.90;;;;;;5079126;28;20460;-81
2022/11/12 06:36:11;;;;;;;6.07;1.83;;;1.20;99.90;;;;;;5074250;28;20463;-79
2022/11/12 06:38:39;;;;;;;5.53;2.53;;;1.30;99.90;;;;;;5069617;28;20463;-79
2022/11/12 06:41:09;;;;;;;55.80;14.63;;;1.30;99.90;;;;;;5075606;28;20455;-77
2022/11/12 06:43:36;;;;;;;29.60;7.30;;;1.30;99.90;;;;;;5078113;28;20476;-78
2022/11/12 06:46:05;;;;;;;8.73;3.13;;;1.30;99.90;;;;;;5088836;28;20517;-79
2022/11/12 06:48:32;;;;;;;9.23;3.53;;;1.40;99.90;;;;;;5087062;28;20495;-78
2022/11/12 06:51:05;;;;;;;4.50;1.50;;;1.40;99.90;;;;;;5067884;28;20990;-78
2022/11/12 06:53:34;;;;;;;2.70;1.33;;;1.40;99.90;;;;;;5066890;28;21114;-79
2022/11/12 06:56:05;;;;;;;1.53;0.93;;;1.60;99.90;;;;;;5067138;28;20495;-79
2022/11/12 06:58:32;;;;;;;4.67;1.43;;;1.60;99.90;;;;;;5068898;28;20560;-80
2022/11/12 07:01:05;;;;;;;5.33;2.83;;;1.50;99.90;;;;;;5074472;28;20536;-78
2022/11/12 07:03:32;;;;;;;66.07;13.53;;;1.70;99.90;;;;;;5081181;28;20458;-79
2022/11/12 07:06:03;;;;;;;67.50;13.17;;;1.70;99.90;;;;;;5077414;28;20557;-78
2022/11/12 07:08:29;;;;;;;193.40;30.20;;;1.70;99.90;;;;;;5082831;28;20930;-79
2022/11/12 07:10:58;;;;;;;187.83;33.40;;;1.70;99.90;;;;;;5083199;28;20516;-78
2022/11/12 07:13:25;;;;;;;48.00;9.90;;;1.70;99.90;;;;;;5078592;28;21018;-78
2022/11/12 07:15:52;;;;;;;88.97;16.97;;;1.70;99.90;;;;;;5085802;28;20531;-79
2022/11/12 07:18:19;;;;;;;69.40;17.53;;;1.80;99.90;;;;;;5083878;28;20895;-78
2022/11/12 07:20:46;;;;;;;128.00;26.37;;;1.90;99.90;;;;;;5068338;28;20524;-79
2022/11/12 07:23:13;;;;;;;63.10;17.83;;;2.10;99.90;;;;;;5067033;28;21068;-78
2022/11/12 07:25:40;;;;;;;161.83;27.20;;;2.30;99.90;;;;;;5066672;28;20458;-78
2022/11/12 07:28:08;;;;;;;192.63;34.03;;;2.40;99.90;;;;;;5069591;28;20501;-79
2022/11/12 07:30:35;;;;;;;206.57;42.80;;;2.30;99.90;;;;;;5068277;28;20456;-79
2022/11/12 07:33:02;;;;;;;118.33;28.90;;;2.30;99.90;;;;;;5070321;28;20479;-79
2022/11/12 07:35:30;;;;;;;190.83;42.30;;;2.40;99.90;;;;;;5071394;28;21554;-80
2022/11/12 07:37:57;;;;;;;119.17;21.90;;;2.40;99.90;;;;;;5077296;28;20482;-80
2022/11/12 07:40:24;;;;;;;29.93;8.00;;;2.50;99.90;;;;;;5073436;28;20542;-78
2022/11/12 07:42:50;;;;;;;31.47;6.30;;;2.40;99.90;;;;;;5067673;28;20537;-78
2022/11/12 07:45:19;;;;;;;37.23;13.10;;;2.50;99.90;;;;;;5073462;28;21130;-79
2022/11/12 07:47:46;;;;;;;39.63;10.40;;;2.40;99.90;;;;;;5069359;28;21949;-78
2022/11/12 07:50:13;;;;;;;28.23;13.00;;;2.50;99.90;;;;;;5074574;28;20482;-78
2022/11/12 07:52:40;;;;;;;3.67;2.63;;;2.60;99.90;;;;;;5087356;28;20482;-79
2022/11/12 07:55:08;;;;;;;2.60;2.23;;;2.60;99.90;;;;;;5076161;28;20524;-79
2022/11/12 07:57:35;;;;;;;86.83;17.90;;;2.80;99.90;;;;;;5071356;28;20528;-80
2022/11/12 08:00:02;;;;;;;40.63;9.30;;;3.00;99.90;;;;;;5082005;28;20465;-79
2022/11/12 08:02:31;;;;;;;64.47;11.10;;;3.00;99.90;;;;;;5077926;28;20451;-79
2022/11/12 08:04:58;;;;;;;3.97;2.30;;;3.20;99.90;;;;;;5076677;28;21014;-80
2022/11/12 08:07:25;;;;;;;26.90;10.00;;;3.40;99.90;;;;;;5076728;28;20463;-79
2022/11/12 08:09:53;;;;;;;81.87;16.67;;;3.60;99.90;;;;;;5080475;28;20466;-79
2022/11/12 08:12:20;;;;;;;47.53;12.30;;;3.60;99.90;;;;;;5072892;28;20483;-79
2022/11/12 08:14:47;;;;;;;72.03;12.93;;;3.60;99.90;;;;;;5078726;28;20512;-79
2022/11/12 08:17:14;;;;;;;74.97;12.30;;;3.50;99.90;;;;;;5076734;28;20471;-79
2022/11/12 08:19:42;;;;;;;42.60;7.27;;;3.50;99.90;;;;;;5073410;28;20498;-79
2022/11/12 08:22:09;;;;;;;48.70;9.70;;;3.60;99.90;;;;;;5073613;28;20451;-79
2022/11/12 08:24:36;;;;;;;44.60;5.30;;;3.60;99.90;;;;;;5069819;28;20463;-79
2022/11/12 08:27:03;;;;;;;15.03;4.43;;;3.60;99.90;;;;;;5074928;28;21062;-79
2022/11/12 08:29:31;;;;;;;13.83;4.40;;;3.60;99.90;;;;;;5078032;28;20531;-79
2022/11/12 08:31:58;;;;;;;14.13;4.27;;;3.60;99.90;;;;;;5082040;28;20479;-79
2022/11/12 08:34:24;;;;;;;6.20;3.27;;;3.60;99.90;;;;;;5079015;28;20472;-79
2022/11/12 08:36:53;;;;;;;8.93;4.40;;;3.60;99.90;;;;;;5066530;28;20463;-79
2022/11/12 08:39:21;;;;;;;24.03;7.33;;;3.70;99.90;;;;;;5068189;28;20955;-79
2022/11/12 08:41:48;;;;;;;16.57;4.70;;;3.80;99.90;;;;;;5071935;28;20454;-79
2022/11/12 08:44:14;;;;;;;31.90;7.17;;;3.80;99.90;;;;;;5062822;28;21174;-79
2022/11/12 08:46:41;;;;;;;74.30;10.07;;;3.90;99.90;;;;;;5065973;28;20547;-79
2022/11/12 08:49:08;;;;;;;35.53;5.20;;;3.80;99.90;;;;;;5072652;28;20467;-79
2022/11/12 08:51:35;;;;;;;18.00;5.90;;;3.80;99.90;;;;;;5065387;28;20654;-79
2022/11/12 08:54:04;;;;;;;4.90;4.10;;;3.80;99.90;;;;;;5072890;28;21117;-79
2022/11/12 08:56:32;;;;;;;25.03;5.90;;;3.80;99.90;;;;;;5077350;28;20500;-78
2022/11/12 08:58:59;;;;;;;18.30;4.63;;;3.80;99.90;;;;;;5072519;28;21034;-79
2022/11/12 09:01:26;;;;;;;15.53;8.47;;;3.90;99.90;;;;;;5065744;28;20520;-79
2022/11/12 09:03:53;;;;;;;57.43;14.03;;;4.10;99.90;;;;;;5064252;28;20491;-80
2022/11/12 09:06:20;;;;;;;4.10;3.70;;;4.30;99.90;;;;;;5069681;28;20975;-79
2022/11/12 09:08:47;;;;;;;8.53;4.00;;;4.40;99.90;;;;;;5067265;28;20462;-79
2022/11/12 09:11:16;;;;;;;20.03;5.27;;;4.40;99.90;;;;;;5067915;28;20931;-79
2022/11/12 09:13:43;;;;;;;47.47;10.67;;;4.30;99.90;;;;;;5069039;28;21906;-79
2022/11/12 09:16:11;;;;;;;9.00;4.20;;;4.40;99.90;;;;;;5070514;28;21097;-79
2022/11/12 09:18:38;;;;;;;25.77;6.73;;;4.60;99.90;;;;;;5056990;28;20586;-80
2022/11/12 09:21:07;;;;;;;12.90;7.43;;;4.80;99.90;;;;;;5067904;28;21217;-79
2022/11/12 09:23:35;;;;;;;4.90;4.50;;;4.90;99.90;;;;;;5068335;28;20451;-79
2022/11/12 09:26:02;;;;;;;4.80;4.30;;;5.00;99.90;;;;;;5074000;28;21301;-79
2022/11/12 09:28:31;;;;;;;4.17;3.87;;;5.20;99.90;;;;;;5067883;28;21103;-79
2022/11/12 09:30:58;;;;;;;3.17;2.93;;;5.30;99.90;;;;;;5068560;28;21003;-79
2022/11/12 09:33:29;;;;;;;4.23;3.83;;;5.30;99.90;;;;;;5069411;28;20554;-79
2022/11/12 09:35:59;;;;;;;5.10;4.60;;;5.50;99.90;;;;;;5068979;28;20467;-80
2022/11/12 09:38:26;;;;;;;3.30;3.00;;;5.60;99.90;;;;;;5073863;28;20495;-78
2022/11/12 09:41:14;;;;;;;3.27;2.97;;;5.70;99.90;;;;;;5063093;28;20458;-80
2022/11/12 09:43:47;;;;;;;3.93;3.67;;;6.00;99.90;;;;;;5072389;28;20456;-79
2022/11/12 09:46:27;;;;;;;3.50;3.20;;;6.10;99.90;;;;;;5075115;28;20502;-79
2022/11/12 09:49:00;;;;;;;4.10;3.70;;;6.10;99.90;;;;;;5071425;28;20463;-79
2022/11/12 09:51:32;;;;;;;3.00;2.70;;;6.20;99.90;;;;;;5084249;28;21271;-79
2022/11/12 09:54:02;;;;;;;4.23;3.30;;;6.30;99.90;;;;;;5074870;28;20459;-80
2022/11/12 09:56:29;;;;;;;3.77;3.47;;;6.60;99.90;;;;;;5068366;28;20471;-79
2022/11/12 09:58:57;;;;;;;8.53;2.40;;;6.50;99.90;;;;;;5070769;28;20463;-80
2022/11/12 10:01:37;;;;;;;2.60;2.40;;;6.60;99.90;;;;;;5071750;28;20521;-79
2022/11/12 10:04:19;;;;;;;3.47;3.17;;;6.70;99.90;;;;;;5075540;28;20466;-79
2022/11/12 10:06:51;;;;;;;3.40;3.10;;;6.80;99.90;;;;;;5075681;28;20461;-80
2022/11/12 10:09:24;;;;;;;3.60;3.20;;;6.90;99.90;;;;;;5068093;28;20502;-80
2022/11/12 10:18:21;;;;;;;2.97;2.67;;;7.10;99.90;;;;;;5075325;28;20498;-81
2022/11/12 10:20:54;;;;;;;2.53;2.33;;;7.20;99.90;;;;;;5077572;28;20494;-81
2022/11/12 10:23:27;;;;;;;2.03;1.80;;;7.40;99.90;;;;;;5076185;28;20460;-79
2022/11/12 10:25:58;;;;;;;2.63;2.43;;;7.40;99.90;;;;;;5074642;28;20476;-79
2022/11/12 10:28:29;;;;;;;2.83;2.63;;;7.70;99.90;;;;;;5080059;28;20611;-79
2022/11/12 10:31:01;;;;;;;2.23;2.03;;;7.70;99.90;;;;;;5070499;28;20545;-79
2022/11/12 10:33:31;;;;;;;3.90;3.60;;;7.60;99.90;;;;;;5082909;28;20525;-79
2022/11/12 10:36:13;;;;;;;4.07;3.77;;;7.40;99.90;;;;;;5072690;28;20535;-79
2022/11/12 10:38:45;;;;;;;3.90;3.50;;;7.50;99.90;;;;;;5073021;28;20453;-79
2022/11/12 10:41:20;;;;;;;5.53;4.40;;;7.70;99.90;;;;;;5081663;28;20584;-79
2022/11/12 10:43:54;;;;;;;5.30;4.83;;;7.60;99.90;;;;;;5073228;28;20487;-81
2022/11/12 10:46:24;;;;;;;5.10;4.43;;;7.20;99.90;;;;;;5079548;28;20965;-82
2022/11/12 10:48:56;;;;;;;33.77;18.77;;;7.20;99.90;;;;;;5077858;28;20472;-79
2022/11/12 10:51:30;;;;;;;16.23;9.30;;;7.40;99.90;;;;;;5077658;28;21107;-79
2022/11/12 10:53:57;;;;;;;7.27;6.20;;;7.40;99.90;;;;;;5076452;28;21023;-79
2022/11/12 10:56:29;;;;;;;4.63;4.17;;;7.60;99.90;;;;;;5074298;28;21213;-79
2022/11/12 10:59:10;;;;;;;8.33;4.63;;;7.70;99.90;;;;;;5076830;28;20970;-79
2022/11/12 11:01:39;;;;;;;7.67;5.07;;;7.80;99.90;;;;;;5077478;28;20555;-80
2022/11/12 11:04:16;;;;;;;5.10;4.60;;;7.70;99.90;;;;;;5083739;28;20461;-79
2022/11/12 11:06:43;;;;;;;6.30;5.73;;;8.00;99.90;;;;;;5068859;28;21136;-79
2022/11/12 11:09:16;;;;;;;5.50;5.00;;;8.00;99.90;;;;;;5084421;28;20934;-79
2022/11/12 11:11:50;;;;;;;4.67;4.30;;;8.00;99.90;;;;;;5075389;28;20459;-79
2022/11/12 11:14:30;;;;;;;5.70;5.20;;;7.70;99.90;;;;;;5075798;28;20537;-79
2022/11/12 11:17:00;;;;;;;5.27;4.87;;;7.70;99.90;;;;;;5069744;28;20546;-79
2022/11/12 11:19:34;;;;;;;5.37;4.87;;;7.60;99.90;;;;;;5075036;28;20943;-79
2022/11/12 11:22:30;;;;;;;5.60;4.80;;;7.80;99.90;;;;;;5067876;28;20564;-80
2022/11/12 11:25:18;;;;;;;6.73;4.90;;;8.10;99.90;;;;;;5065639;28;20495;-79
2022/11/12 11:27:57;;;;;;;6.17;4.60;;;8.30;99.90;;;;;;5061760;28;20487;-79
2022/11/12 11:30:25;;;;;;;5.50;5.00;;;8.40;99.90;;;;;;5061947;28;20466;-79
2022/11/12 11:33:32;;;;;;;5.23;4.83;;;8.40;99.90;;;;;;5060106;28;20486;-79
2022/11/12 11:36:19;;;;;;;6.07;5.57;;;8.30;99.90;;;;;;5016848;28;20492;-79
2022/11/12 11:39:03;;;;;;;6.23;5.73;;;8.30;99.90;;;;;;5019122;28;20465;-79
2022/11/12 11:41:48;;;;;;;6.07;5.57;;;8.40;99.90;;;;;;5050915;28;20562;-78
2022/11/12 11:44:23;;;;;;;5.07;4.67;;;8.30;99.90;;;;;;5065230;28;20509;-78
2022/11/12 11:46:59;;;;;;;7.23;6.53;;;8.30;99.90;;;;;;5063685;28;20470;-78
2022/11/12 11:49:59;;;;;;;8.47;7.13;;;8.20;99.90;;;;;;5065931;28;20470;-79
2022/11/12 11:52:48;;;;;;;5.80;5.20;;;7.80;99.90;;;;;;5049756;28;20630;-78
2022/11/12 11:55:24;;;;;;;6.70;6.03;;;7.70;99.90;;;;;;5067567;28;20528;-79
2022/11/12 11:58:09;;;;;;;6.37;5.97;;;7.70;99.90;;;;;;5069277;28;20555;-78
2022/11/12 12:00:52;;;;;;;6.43;5.93;;;7.50;99.90;;;;;;5075426;28;21005;-79
2022/11/12 12:03:23;;;;;;;7.70;6.90;;;7.60;99.90;;;;;;5073846;28;20491;-79
2022/11/12 12:06:28;;;;;;;8.43;7.63;;;7.80;99.90;;;;;;5062506;28;20532;-79
2022/11/12 12:09:07;;;;;;;10.13;7.60;;;7.80;99.90;;;;;;5020157;28;20995;-79
2022/11/12 12:11:42;;;;;;;7.80;7.00;;;7.60;99.90;;;;;;5026433;28;20492;-78
2022/11/12 12:14:19;;;;;;;9.10;6.40;;;7.70;99.90;;;;;;5045513;28;20505;-80
2022/11/12 12:16:56;;;;;;;8.57;7.67;;;7.50;99.90;;;;;;5067208;28;20500;-79
2022/11/12 12:19:41;;;;;;;8.23;7.03;;;7.40;99.90;;;;;;5066134;28;20526;-80
2022/11/12 12:22:14;;;;;;;8.60;7.80;;;7.50;99.90;;;;;;5063677;28;20449;-80
2022/11/12 12:24:48;;;;;;;8.67;7.87;;;7.70;99.90;;;;;;5067325;28;20452;-80
2022/11/12 12:27:20;;;;;;;8.43;7.07;;;7.80;99.90;;;;;;5091716;28;20514;-79
2022/11/12 12:29:51;;;;;;;8.40;7.10;;;7.90;99.90;;;;;;5060407;28;20541;-80
2022/11/12 12:32:23;;;;;;;7.77;7.10;;;8.10;99.90;;;;;;5062563;28;20516;-80
2022/11/12 12:34:56;;;;;;;10.13;9.23;;;8.20;99.90;;;;;;5065885;28;20470;-80
2022/11/12 12:37:30;;;;;;;10.30;9.33;;;8.20;99.90;;;;;;5065257;28;20443;-79
2022/11/12 12:40:04;;;;;;;10.50;8.43;;;7.80;99.90;;;;;;5068984;28;20500;-79
2022/11/12 12:42:37;;;;;;;9.17;7.80;;;7.70;99.90;;;;;;5067869;28;20520;-79
2022/11/12 12:45:26;;;;;;;10.93;7.73;;;7.90;99.90;;;;;;5066300;28;20548;-78
2022/11/12 12:47:55;;;;;;;9.37;7.40;;;8.10;99.90;;;;;;5071195;28;20466;-78
2022/11/12 12:50:23;;;;;;;10.80;9.40;;;7.80;99.90;;;;;;5067563;28;20898;-78
2022/11/12 12:53:05;;;;;;;9.93;8.73;;;8.00;99.90;;;;;;5066945;28;20565;-78
2022/11/12 12:55:39;;;;;;;13.13;10.37;;;8.10;99.90;;;;;;5066932;28;20550;-78
2022/11/12 12:58:20;;;;;;;11.30;10.17;;;8.00;99.90;;;;;;5065963;28;20547;-78
2022/11/12 13:00:49;;;;;;;11.00;9.80;;;8.10;99.90;;;;;;5066036;28;20463;-78
2022/11/12 13:03:58;;;;;;;11.03;9.03;;;8.20;99.90;;;;;;5081329;28;20461;-78
2022/11/12 13:06:28;;;;;;;13.80;9.20;;;8.10;99.90;;;;;;5056284;28;20474;-81
2022/11/12 13:08:59;;;;;;;13.13;10.60;;;8.00;99.90;;;;;;5069139;28;20466;-78
2022/11/12 13:15:18;;;;;;;17.50;11.70;;;8.10;99.90;;;;;;5071233;28;20480;-78
2022/11/12 13:17:51;;;;;;;12.00;10.37;;;7.80;99.90;;;;;;4993824;28;20595;-79
2022/11/12 13:20:33;;;;;;;13.10;10.83;;;7.70;99.90;;;;;;4988472;28;20459;-79
2022/11/12 13:23:01;;;;;;;12.17;10.87;;;7.70;99.90;;;;;;5043787;28;20463;-79
2022/11/12 13:25:31;;;;;;;12.53;11.33;;;7.60;99.90;;;;;;5068976;28;20461;-79
2022/11/12 13:28:09;;;;;;;11.07;9.67;;;7.60;99.90;;;;;;5067694;28;20600;-79
2022/11/12 13:30:58;;;;;;;14.67;11.70;;;7.50;99.90;;;;;;5072499;28;20463;-79
2022/11/12 13:33:33;;;;;;;20.70;12.13;;;7.40;99.90;;;;;;5065475;28;21118;-79